Decoded Metar for VOMM (MADRAS in INDIA) (IATA:MAA) | Meteo·Mobile Aviation Weather
aviador You're here:

VOMM Decoded Metar

MADRAS in INDIA
Report Time2019-04-23 16:00:00
UTC Time2019-04-23 16:30:07
Flight Rules mvfr MVFR
Wind120° at 07 kt
W.Decomp.*RWY 12: 7.0 kt HW 0.2 kt RCW
RWY 07: 4.3 kt HW 5.5 kt RCW
Visibility6000 m
Phenomena:N/A
Clouds:Few 020 Hf
Expected CloudBase > 2,000 ft AGL from Temp-Dew spread
CeilingNone
Temp31°C (ISA +16)
Dew Point26°C (75% RH)
Heat Index39.2°C
QNH1009 hPa
Density Alt2,467 ft
Elevation52 ft
Report Wrong Elevation
Raw Report
VOMM 231600Z 12007KT 6000 FEW020 31/26 Q1009 NOSIG=

Extra information for VOMM:More info

Metar Taf Metar & Taf Last 4 Metars F.Rules Stats Wind Profile Meteogram Temp Stats Airport Information Weather charts Add Link Nearby VenuesMetar ALERT Operation Metar Decoded Social comments